Flight Track Log - Related Links

Times and Time Zones

All times are in EDT time to prevent confusion due to time zone crossing. See the AAL963 flight status page for this flight to view local times or setup timezone preferences in your user account.

Time Position Orientation Groundspeed Altitude Reporting Facility
EDT Latitude Longitude Course Direction KTS MPH feet Rate Location/Type
Thu 09:19:03 PM 32.8660 -97.0540 193° South 192 221 1,600  Level FlightAware ADS-B
Thu 09:19:31 PM 32.8420 -97.0610 194° South 197 227 2,300 1,071 Climbing FlightAware ADS-B
Thu 09:19:59 PM 32.8150 -97.0690 194° South 227 261 2,600 923 Climbing FlightAware ADS-B
Thu 09:20:23 PM 32.7880 -97.0760 192° South 247 284 3,100 1,385 Climbing FlightAware ADS-B
Thu 09:20:51 PM 32.7570 -97.0850 194° South 258 297 3,800 1,821 Climbing FlightAware ADS-B
Thu 09:21:19 PM 32.7230 -97.0940 193° South 262 302 4,800 2,077 Climbing FlightAware ADS-B
Thu 09:21:43 PM 32.6950 -97.1010 192° South 264 304 5,600 1,800 Climbing FlightAware ADS-B
Thu 09:21:59 PM 32.6740 -97.1050 189° South 274 315 6,000 1,737 Climbing FlightAware ADS-B
Thu 09:22:21 PM 32.6490 -97.1030 176° South 274 315 6,700 1,684 Climbing FlightAware ADS-B
Thu 09:22:56 PM 32.6030 -97.0990 176° South 284 327 7,600 1,600 Climbing FlightAware ADS-B
Thu 09:23:06 PM 32.5890 -97.0980 177° South 284 327 7,900 1,650 Climbing FlightAware ADS-B
Thu 09:23:36 PM 32.5490 -97.0940 175° South 291 335 8,700 1,745 Climbing FlightAware ADS-B
Thu 09:24:01 PM 32.5170 -97.0910 175° South 292 336 9,500 1,662 Climbing FlightAware ADS-B
Thu 09:24:41 PM 32.4670 -97.0860 175° South 305 351 10,500 1,295 Climbing FlightAware ADS-B
Thu 09:25:29 PM 32.3870 -97.0790 176° South 341 392 11,400 1,253 Climbing FlightAware ADS-B
Thu 09:26:12 PM 32.3180 -97.0730 176° South 360 414 12,400 1,357 Climbing FlightAware ADS-B
Thu 09:26:53 PM 32.2490 -97.0660 175° South 379 436 13,300 1,765 Climbing FlightAware ADS-B
Thu 09:27:37 PM 32.1710 -97.0430 166° South 375 432 14,900 1,857 Climbing FlightAware ADS-B
Thu 09:28:17 PM 32.1040 -97.0210 164° South 385 443 15,900 1,643 Climbing FlightAware ADS-B
Thu 09:29:01 PM 32.0270 -96.9960 165° South 392 451 17,200 1,636 Climbing FlightAware ADS-B
Thu 09:29:23 PM 31.9890 -96.9837 165° South 399 459 17,700 1,000 Climbing FlightAware ADS-B
Thu 09:29:55 PM 31.9304 -96.9636 164° South 417 480 18,100 941 Climbing FlightAware ADS-B
Thu 09:31:05 PM 31.7960 -96.9170 164° South 443 510 19,300 1,116 Climbing FlightAware ADS-B
Thu 09:31:21 PM 31.7639 -96.9059 164° South 447 514 19,700 1,435 Climbing FlightAware ADS-B
Thu 09:31:51 PM 31.7029 -96.8853 164° South 454 522 20,400 1,349 Climbing FlightAware ADS-B
Thu 09:34:10 PM 31.4138 -96.7903 164° South 472 543 23,500 1,271 Climbing FlightAware ADS-B
Thu 09:34:41 PM 31.3479 -96.7679 164° South 478 550 24,000 1,102 Climbing FlightAware ADS-B
Thu 09:34:59 PM 31.3113 -96.7546 163° South 480 552 24,400 1,250 Climbing FlightAware ADS-B
Thu 09:35:05 PM 31.2975 -96.7485 159° South 481 554 24,500 966 Climbing FlightAware ADS-B
Thu 09:36:26 PM 31.1342 -96.6547 154° Southeast 493 567 25,800 978 Climbing FlightAware ADS-B
Thu 09:36:37 PM 31.1124 -96.6402 150° Southeast 495 570 26,000 971 Climbing FlightAware ADS-B
Thu 09:37:34 PM 31.0248 -96.5268 129° Southeast 502 578 26,900 889 Climbing FlightAware ADS-B
Thu 09:38:25 PM 30.9583 -96.4096 122° Southeast 508 585 27,600 805 Climbing FlightAware ADS-B
Thu 09:38:56 PM 30.9217 -96.3378 121° Southeast 512 589 28,000 787 Climbing FlightAware ADS-B
Thu 09:39:26 PM 30.8845 -96.2652 121° Southeast 515 593 28,400 700 Climbing FlightAware ADS-B
Thu 09:39:56 PM 30.8473 -96.1938 121° Southeast 521 600 28,700 645 Climbing FlightAware ADS-B
Thu 09:41:27 PM 30.7328 -95.9761 122° Southeast 530 610 29,700 925 Climbing FlightAware ADS-B
Thu 09:43:30 PM 30.5765 -95.6810 122° Southeast 519 597 32,000 1,098 Climbing FlightAware ADS-B
Thu 09:44:00 PM 30.5381 -95.6087 122° Southeast 515 593 32,500 885 Climbing FlightAware ADS-B
Thu 09:44:31 PM 30.4995 -95.5360 122° Southeast 514 592 32,900 492 Climbing FlightAware ADS-B
Thu 09:45:01 PM 30.4620 -95.4658 122° Southeast 515 593 33,000 98 Climbing FlightAware ADS-B
Thu 09:45:32 PM 30.4239 -95.3942 122° Southeast 515 593 33,000  Level FlightAware ADS-B
Thu 09:46:02 PM 30.3855 -95.3224 122° Southeast 515 593 33,000  Level FlightAware ADS-B
Thu 09:48:07 PM 30.2287 -95.0307 122° Southeast 513 590 33,000  Level FlightAware ADS-B
Thu 09:48:38 PM 30.1908 -94.9605 122° Southeast 513 590 33,000  Level FlightAware ADS-B
Thu 09:49:39 PM 30.1138 -94.8182 122° Southeast 514 592 33,000  Level FlightAware ADS-B
Thu 09:50:09 PM 30.0757 -94.7479 122° Southeast 515 593 33,000  Level FlightAware ADS-B
Thu 09:50:40 PM 30.0367 -94.6761 122° Southeast 515 593 33,000  Level FlightAware ADS-B
Thu 09:51:10 PM 29.9982 -94.6053 122° Southeast 517 595 33,000  Level FlightAware ADS-B
Thu 09:51:41 PM 29.9597 -94.5347 122° Southeast 516 594 33,000  Level FlightAware ADS-B
Thu 09:53:12 PM 29.8434 -94.3225 122° Southeast 516 594 33,000  Level FlightAware ADS-B
Thu 09:53:43 PM 29.8045 -94.2515 122° Southeast 515 593 33,000  Level FlightAware ADS-B
Thu 09:54:13 PM 29.7657 -94.1812 122° Southeast 512 589 33,000  Level FlightAware ADS-B
Thu 09:54:43 PM 29.7277 -94.1121 122° Southeast 511 588 33,000  Level FlightAware ADS-B
Thu 09:55:23 PM 29.6702 -94.0254 130° Southeast 511 588 33,000  Level FlightAware ADS-B
Thu 09:57:28 PM 29.4356 -93.8241 144° Southeast 505 581 33,000  Level FlightAware ADS-B
Thu 09:58:13 PM 29.3518 -93.7530 144° Southeast 503 579 33,000  Level FlightAware ADS-B
Thu 09:58:52 PM 29.2784 -93.6903 143° Southeast 503 579 33,000  Level FlightAware ADS-B
Thu 09:59:23 PM 29.2212 -93.6414 143° Southeast 501 577 33,000  Level FlightAware ADS-B
Thu 09:59:54 PM 29.1634 -93.5923 143° Southeast 500 575 33,000  Level FlightAware ADS-B
Thu 10:00:25 PM 29.1067 -93.5443 144° Southeast 500 575 33,000  Level FlightAware ADS-B
Thu 10:00:56 PM 29.0484 -93.4948 143° Southeast 500 575 33,000  Level FlightAware ADS-B
Thu 10:01:27 PM 28.9916 -93.4469 144° Southeast 500 575 33,000  Level FlightAware ADS-B
Thu 10:01:57 PM 28.9344 -93.3988 144° Southeast 500 575 33,000  Level FlightAware ADS-B
Thu 10:02:29 PM 28.8761 -93.3498 144° Southeast 499 574 33,000 -63 Level FlightAware ADS-B
Thu 10:03:33 PM 28.7725 -93.2608 144° Southeast 499 574 32,900  Descending Houston Center
Thu 10:04:34 PM 28.6611 -93.1669 144° Southeast 499 574 33,000  Climbing Houston Center
Thu 10:05:36 PM 28.5486 -93.0742 144° Southeast 499 574 32,900  Descending Houston Center
Thu 10:06:37 PM 28.4364 -92.9808 144° Southeast 501 577 33,000 49 Climbing Houston Center
Thu 10:07:38 PM 28.3244 -92.8867 143° Southeast 502 578 33,000 -49 Level Houston Center
Thu 10:08:40 PM 28.1897 -92.7758 144° Southeast 498 573 32,900  Descending Houston Center
Thu 10:09:41 PM 28.0786 -92.6850 144° Southeast 496 571 33,000  Climbing Houston Center
Thu 10:10:42 PM 27.9667 -92.5936 144° Southeast 495 570 32,900 -49 Descending Houston Center
Thu 10:11:44 PM 27.8561 -92.4997 143° Southeast 497 572 32,900 Level Houston Center
Thu 10:13:00 PM 27.7175 -92.3921 143° Southeast  Level FlightAware Approximate
Thu 10:20:00 PM 26.9674 -91.7737 144° Southeast  Level FlightAware Approximate
Thu 10:21:00 PM 26.8592 -91.6873 145° Southeast  Level FlightAware Approximate
Thu 10:22:00 PM 26.7510 -91.6010 145° Southeast  Level FlightAware Approximate
Thu 10:23:00 PM 26.6427 -91.5150 145° Southeast  Level FlightAware Approximate
Thu 10:24:00 PM 26.5343 -91.4290 145° Southeast  Level FlightAware Approximate
Thu 10:25:00 PM 26.4261 -91.3434 145° Southeast  Level FlightAware Approximate
Thu 10:26:00 PM 26.3177 -91.2579 145° Southeast  Level FlightAware Approximate
Thu 10:27:00 PM 26.2094 -91.1725 145° Southeast  Level FlightAware Approximate
Thu 10:28:00 PM 26.1009 -91.0873 145° Southeast  Level FlightAware Approximate
Thu 10:29:00 PM 25.9924 -91.0023 145° Southeast  Level FlightAware Approximate
Thu 10:30:00 PM 25.8839 -90.9174 145° Southeast  Level FlightAware Approximate
Thu 10:31:00 PM 25.7753 -90.8327 145° Southeast  Level FlightAware Approximate
Thu 10:32:00 PM 25.6667 -90.7482 145° Southeast  Level FlightAware Approximate
Thu 10:33:00 PM 25.5580 -90.6637 145° Southeast  Level FlightAware Approximate
Thu 10:34:00 PM 25.4493 -90.5795 145° Southeast  Level FlightAware Approximate
Thu 10:35:00 PM 25.3405 -90.4954 145° Southeast  Level FlightAware Approximate
Thu 10:36:00 PM 25.2317 -90.4115 145° Southeast  Level FlightAware Approximate
Thu 10:37:00 PM 25.1228 -90.3277 145° Southeast  Level FlightAware Approximate
Thu 10:38:00 PM 25.0139 -90.2440 145° Southeast  Level FlightAware Approximate
Thu 10:39:00 PM 24.9051 -90.1603 145° Southeast  Level FlightAware Approximate
Thu 10:40:00 PM 24.7962 -90.0766 145° Southeast  Level FlightAware Approximate
Thu 10:41:00 PM 24.6873 -89.9932 145° Southeast  Level FlightAware Approximate
Thu 10:42:00 PM 24.5784 -89.9099 145° Southeast  Level FlightAware Approximate
Thu 10:43:00 PM 24.4711 -89.8244 146° Southeast  Level FlightAware Approximate
Thu 10:44:00 PM 24.3607 -89.7435 146° Southeast  Level FlightAware Approximate
Thu 10:45:00 PM 24.2503 -89.6627 146° Southeast  Level FlightAware Approximate
Thu 10:46:00 PM 24.1399 -89.5821 146° Southeast  Level FlightAware Approximate
Thu 10:47:00 PM 24.0297 -89.5012 145° Southeast  Level FlightAware Approximate
Thu 10:48:00 PM 23.9207 -89.4184 145° Southeast  Level FlightAware Approximate
Thu 10:49:00 PM 23.8117 -89.3357 145° Southeast  Level FlightAware Approximate
Thu 10:50:00 PM 23.7026 -89.2531 145° Southeast  Level FlightAware Approximate
Thu 10:50:45 PM 23.4300 -89.0460 145° Southeast 496 571 33,000  Level FlightAware ADS-B
Thu 10:51:00 PM 23.5935 -89.1707 145° Southeast  Level FlightAware Approximate
Thu 10:51:25 PM 23.3540 -88.9890 145° Southeast 497 572 33,000  Level FlightAware ADS-B
Thu 10:51:55 PM 23.3060 -88.9530 145° Southeast 497 572 33,000  Level FlightAware ADS-B
Thu 10:52:41 PM 23.2320 -88.8970 145° Southeast 497 572 33,000  Level FlightAware ADS-B
Thu 10:53:21 PM 23.1320 -88.8240 146° Southeast 498 573 33,000  Level FlightAware ADS-B
Thu 10:54:11 PM 23.0520 -88.7630 145° Southeast 498 573 33,000  Level FlightAware ADS-B
Thu 10:54:51 PM 22.9600 -88.6960 146° Southeast 499 574 33,000  Level FlightAware ADS-B
Thu 10:55:31 PM 22.8860 -88.6420 146° Southeast 499 574 33,000  Level FlightAware ADS-B
Thu 10:56:15 PM 22.8010 -88.5790 146° Southeast 498 573 33,000  Level FlightAware ADS-B
Thu 10:56:45 PM 22.7430 -88.5360 146° Southeast 497 572 33,000  Level FlightAware ADS-B
Thu 10:57:33 PM 22.6520 -88.4690 146° Southeast 497 572 33,000  Level FlightAware ADS-B
Thu 10:58:13 PM 22.5770 -88.4070 143° Southeast 494 568 33,000  Level FlightAware ADS-B
Thu 10:58:53 PM 22.5110 -88.3420 138° Southeast 493 567 33,000  Level FlightAware ADS-B
Thu 10:59:38 PM 22.4430 -88.2710 136° Southeast 493 567 33,000  Level FlightAware ADS-B
Thu 11:00:15 PM 22.3920 -88.2180 136° Southeast 493 567 33,000  Level FlightAware ADS-B
Thu 11:01:04 PM 22.3230 -88.1460 136° Southeast 493 567 33,000  Level FlightAware ADS-B
Thu 11:01:40 PM 22.2430 -88.0680 138° Southeast 492 566 33,000  Level FlightAware ADS-B
Thu 11:02:28 PM 22.1760 -87.9980 136° Southeast 492 566 33,000  Level FlightAware ADS-B
Thu 11:03:03 PM 22.0970 -87.9220 138° Southeast 492 566 33,000  Level FlightAware ADS-B
Thu 11:03:53 PM 22.0270 -87.8490 136° Southeast 492 566 33,000  Level FlightAware ADS-B
Thu 11:04:29 PM 21.9770 -87.7970 136° Southeast 492 566 33,000  Level FlightAware ADS-B
Thu 11:05:17 PM 21.9100 -87.7270 136° Southeast 492 566 33,000  Level FlightAware ADS-B
Thu 11:05:43 PM 21.8300 -87.6540 140° Southeast 490 564 33,000  Level FlightAware ADS-B
Thu 11:06:29 PM 21.7520 -87.5760 137° Southeast 491 565 33,000  Level FlightAware ADS-B
Thu 11:07:11 PM 21.6860 -87.5100 137° Southeast 489 563 33,000  Level FlightAware ADS-B
Thu 11:07:47 PM 21.6230 -87.4480 138° Southeast 488 562 33,000  Level FlightAware ADS-B
Thu 11:08:33 PM 21.5470 -87.3730 137° Southeast 488 562 33,000  Level FlightAware ADS-B
Thu 11:09:13 PM 21.4810 -87.3070 137° Southeast 488 562 33,000  Level FlightAware ADS-B
Thu 11:09:55 PM 21.4090 -87.2360 137° Southeast 488 562 33,000  Level FlightAware ADS-B
Thu 11:10:37 PM 21.3400 -87.1680 137° Southeast 488 562 33,000  Level FlightAware ADS-B
Thu 11:11:21 PM 21.2660 -87.0960 138° Southeast 489 563 33,000  Level FlightAware ADS-B
Thu 11:12:01 PM 21.2000 -87.0300 137° Southeast 488 562 33,000  Level FlightAware ADS-B
Thu 11:12:35 PM 21.1440 -86.9760 138° Southeast 487 560 33,000  Level FlightAware ADS-B
Thu 11:13:19 PM 21.0700 -86.9030 137° Southeast 485 558 33,000  Level FlightAware ADS-B
Thu 11:13:59 PM 21.0030 -86.8380 138° Southeast 484 557 33,000  Level FlightAware ADS-B
Thu 11:14:37 PM 20.9420 -86.7780 137° Southeast 483 556 33,000  Level FlightAware ADS-B
Thu 11:15:17 PM 20.8750 -86.7130 138° Southeast 483 556 33,000  Level FlightAware ADS-B
Thu 11:15:57 PM 20.8100 -86.6500 138° Southeast 484 557 33,000  Level FlightAware ADS-B
Thu 11:16:40 PM 20.7390 -86.5810 138° Southeast 483 556 33,000  Level FlightAware ADS-B
Thu 11:17:20 PM 20.6740 -86.5180 138° Southeast 482 555 33,000  Level FlightAware ADS-B
Thu 11:18:06 PM 20.5950 -86.4420 138° Southeast 482 555 33,000  Level FlightAware ADS-B
Thu 11:18:42 PM 20.5370 -86.3860 138° Southeast 482 555 33,000  Level FlightAware ADS-B
Thu 11:19:53 PM 20.4250 -86.2770 138° Southeast 482 555 33,000  Level FlightAware ADS-B
Thu 11:20:32 PM 20.3530 -86.2090 138° Southeast 482 555 33,000  Level FlightAware ADS-B
Thu 11:21:07 PM 20.3020 -86.1580 137° Southeast 482 555 33,000  Level FlightAware ADS-B
Thu 11:21:50 PM 20.2240 -86.0850 139° Southeast 482 555 33,000  Level FlightAware ADS-B
Thu 11:22:30 PM 20.1560 -86.0200 138° Southeast 482 555 33,000  Level FlightAware ADS-B
Thu 11:23:10 PM 20.0910 -85.9580 138° Southeast 483 556 33,000  Level FlightAware ADS-B
Thu 11:23:54 PM 20.0170 -85.8870 138° Southeast 482 555 33,000  Level FlightAware ADS-B
Thu 11:24:38 PM 19.9440 -85.8180 138° Southeast 481 554 33,000  Level FlightAware ADS-B
Thu 11:25:18 PM 19.8780 -85.7550 138° Southeast 480 552 33,000  Level FlightAware ADS-B
Thu 11:26:02 PM 19.8040 -85.6860 139° Southeast 481 554 33,000  Level FlightAware ADS-B
Thu 11:26:34 PM 19.7500 -85.6350 138° Southeast 480 552 33,000  Level FlightAware ADS-B
Thu 11:27:46 PM 19.6330 -85.5250 138° Southeast 479 551 33,000  Level FlightAware ADS-B
Thu 11:28:28 PM 19.5680 -85.4630 138° Southeast 478 550 33,000  Level FlightAware ADS-B
Thu 11:29:02 PM 19.5050 -85.4050 139° Southeast 478 550 33,000  Level FlightAware ADS-B
Thu 11:29:46 PM 19.4330 -85.3380 139° Southeast 476 548 33,000  Level FlightAware ADS-B
Thu 11:30:24 PM 19.3700 -85.2790 139° Southeast 475 547 33,000  Level FlightAware ADS-B
Thu 11:31:25 PM 19.2820 -85.1950 138° Southeast 475 547 33,000  Level FlightAware ADS-B
Thu 11:32:01 PM 19.2320 -85.1480 138° Southeast 475 547 33,000  Level FlightAware ADS-B
Thu 11:32:50 PM 19.1640 -85.0830 138° Southeast 475 547 33,000  Level FlightAware ADS-B
Thu 11:33:26 PM 19.1140 -85.0350 138° Southeast 475 547 33,000  Level FlightAware ADS-B
Thu 11:34:02 PM 19.0640 -84.9880 138° Southeast 475 547 33,000  Level FlightAware ADS-B
Thu 11:34:40 PM 19.0120 -84.9370 137° Southeast 475 547 33,000  Level FlightAware ADS-B
Thu 11:35:28 PM 18.9450 -84.8740 138° Southeast 475 547 33,000  Level FlightAware ADS-B
Thu 11:36:04 PM 18.8950 -84.8260 138° Southeast 475 547 33,000  Level FlightAware ADS-B
Thu 11:36:40 PM 18.8450 -84.7790 138° Southeast 475 547 33,000  Level FlightAware ADS-B
Thu 11:37:28 PM 18.7780 -84.7150 138° Southeast 475 547 33,000  Level FlightAware ADS-B
Thu 11:38:04 PM 18.7280 -84.6680 138° Southeast 475 547 33,000  Level FlightAware ADS-B
Thu 11:38:52 PM 18.6620 -84.6050 138° Southeast 475 547 33,000  Level FlightAware ADS-B
Thu 11:39:28 PM 18.6120 -84.5570 138° Southeast 475 547 33,000  Level FlightAware ADS-B
Thu 11:40:16 PM 18.5450 -84.4940 138° Southeast 475 547 33,000 17 Level FlightAware ADS-B
Thu 11:42:00 PM 18.4046 -84.3061 125° Southeast  Level FlightAware Approximate
Thu 11:43:00 PM 18.3291 -84.1912 125° Southeast  Level FlightAware Approximate
Thu 11:44:00 PM 18.2536 -84.0763 125° Southeast  Level FlightAware Approximate
Thu 11:45:00 PM 18.1780 -83.9615 125° Southeast  Level FlightAware Approximate
Thu 11:46:00 PM 18.1023 -83.8468 125° Southeast  Level FlightAware Approximate
Thu 11:47:00 PM 18.0265 -83.7322 125° Southeast  Level FlightAware Approximate
Thu 11:48:00 PM 17.9507 -83.6178 125° Southeast  Level FlightAware Approximate
Thu 11:49:00 PM 17.8563 -83.5199 135° Southeast  Level FlightAware Approximate
Thu 11:50:00 PM 17.7616 -83.4222 136° Southeast  Level FlightAware Approximate
Thu 11:51:00 PM 17.6668 -83.3247 136° Southeast  Level FlightAware Approximate
Thu 11:52:00 PM 17.5721 -83.2273 136° Southeast  Level FlightAware Approximate
Thu 11:53:00 PM 17.4772 -83.1300 136° Southeast  Level FlightAware Approximate
Thu 11:54:00 PM 17.3824 -83.0327 136° Southeast  Level FlightAware Approximate
Thu 11:55:00 PM 17.2833 -82.9404 139° Southeast  Level FlightAware Approximate
Thu 11:56:00 PM 17.1833 -82.8490 139° Southeast  Level FlightAware Approximate
Thu 11:57:00 PM 17.0833 -82.7578 139° Southeast  Level FlightAware Approximate
Thu 11:58:00 PM 16.9832 -82.6667 139° Southeast  Level FlightAware Approximate
Thu 11:59:00 PM 16.8831 -82.5757 139° Southeast  Level FlightAware Approximate
Fri 12:00:00 AM 16.7829 -82.4847 139° Southeast  Level FlightAware Approximate
Fri 12:01:00 AM 16.6828 -82.3939 139° Southeast  Level FlightAware Approximate
Fri 12:02:00 AM 16.5825 -82.3031 139° Southeast  Level FlightAware Approximate
Fri 12:03:00 AM 16.4823 -82.2125 139° Southeast  Level FlightAware Approximate
Fri 12:04:00 AM 16.3879 -82.1154 134° Southeast  Level FlightAware Approximate
Fri 12:05:00 AM 16.2963 -82.0154 134° Southeast  Level FlightAware Approximate
Fri 12:06:00 AM 16.2047 -81.9155 134° Southeast  Level FlightAware Approximate
Fri 12:07:00 AM 16.1130 -81.8156 134° Southeast  Level FlightAware Approximate
Fri 12:08:00 AM 16.0212 -81.7159 134° Southeast  Level FlightAware Approximate
Fri 12:09:00 AM 15.9293 -81.6163 134° Southeast  Level FlightAware Approximate
Fri 12:10:00 AM 15.8374 -81.5168 134° Southeast  Level FlightAware Approximate
Fri 12:11:00 AM 15.7455 -81.4174 134° Southeast  Level FlightAware Approximate
Fri 12:12:00 AM 15.6535 -81.3181 134° Southeast  Level FlightAware Approximate
Fri 12:13:00 AM 15.5614 -81.2189 134° Southeast  Level FlightAware Approximate
Fri 12:14:00 AM 15.4693 -81.1198 134° Southeast  Level FlightAware Approximate
Fri 12:15:00 AM 15.3772 -81.0207 134° Southeast  Level FlightAware Approximate
Fri 12:16:00 AM 15.2850 -80.9218 134° Southeast  Level FlightAware Approximate
Fri 12:17:00 AM 15.1928 -80.8229 134° Southeast  Level FlightAware Approximate
Fri 12:18:00 AM 15.1005 -80.7241 134° Southeast  Level FlightAware Approximate
Fri 12:19:00 AM 15.0082 -80.6254 134° Southeast  Level FlightAware Approximate
Fri 12:20:00 AM 14.9046 -80.5398 142° Southeast  Level FlightAware Approximate
Fri 12:21:00 AM 14.7998 -80.4556 142° Southeast  Level FlightAware Approximate
Fri 12:22:00 AM 14.6950 -80.3714 142° Southeast  Level FlightAware Approximate
Fri 12:23:00 AM 14.5902 -80.2874 142° Southeast  Level FlightAware Approximate
Fri 12:24:00 AM 14.4853 -80.2034 142° Southeast  Level FlightAware Approximate
Fri 12:25:00 AM 14.3805 -80.1195 142° Southeast  Level FlightAware Approximate
Fri 12:26:00 AM 14.2756 -80.0356 142° Southeast  Level FlightAware Approximate
Fri 12:27:00 AM 14.1706 -79.9519 142° Southeast  Level FlightAware Approximate
Fri 12:28:00 AM 14.0656 -79.8682 142° Southeast  Level FlightAware Approximate
Fri 12:29:00 AM 13.9607 -79.7846 142° Southeast  Level FlightAware Approximate
Fri 12:30:00 AM 13.8556 -79.7010 142° Southeast  Level FlightAware Approximate
Fri 12:31:00 AM 13.7507 -79.6174 142° Southeast  Level FlightAware Approximate
Fri 12:32:00 AM 13.6458 -79.5338 142° Southeast  Level FlightAware Approximate
Fri 12:33:00 AM 13.5408 -79.4503 142° Southeast  Level FlightAware Approximate
Fri 12:34:00 AM 13.4358 -79.3669 142° Southeast  Level FlightAware Approximate
Fri 12:35:00 AM 13.3308 -79.2835 142° Southeast  Level FlightAware Approximate
Fri 12:36:00 AM 13.2258 -79.2002 142° Southeast  Level FlightAware Approximate
Fri 12:37:00 AM 13.1207 -79.1170 142° Southeast  Level FlightAware Approximate
Fri 12:38:00 AM 13.0156 -79.0338 142° Southeast  Level FlightAware Approximate
Fri 12:39:00 AM 12.9105 -78.9507 142° Southeast  Level FlightAware Approximate
Fri 12:40:00 AM 12.8054 -78.8677 142° Southeast  Level FlightAware Approximate
Fri 12:41:00 AM 12.7002 -78.7847 142° Southeast  Level FlightAware Approximate
Fri 12:42:00 AM 12.5950 -78.7019 142° Southeast  Level FlightAware Approximate
Fri 12:43:00 AM 12.4898 -78.6190 142° Southeast  Level FlightAware Approximate
Fri 12:44:00 AM 12.3846 -78.5363 142° Southeast  Level FlightAware Approximate
Fri 12:45:00 AM 12.2793 -78.4536 142° Southeast  Level FlightAware Approximate
Fri 12:46:00 AM 12.1740 -78.3710 143° Southeast  Level FlightAware Approximate
Fri 12:47:00 AM 12.0687 -78.2885 143° Southeast  Level FlightAware Approximate
Fri 12:48:00 AM 11.9634 -78.2060 143° Southeast  Level FlightAware Approximate
Fri 12:49:00 AM 11.8580 -78.1236 143° Southeast  Level FlightAware Approximate
Fri 12:50:00 AM 11.7526 -78.0412 143° Southeast  Level FlightAware Approximate
Fri 12:51:00 AM 11.6472 -77.9589 143° Southeast  Level FlightAware Approximate
Fri 12:52:00 AM 11.5418 -77.8767 143° Southeast  Level FlightAware Approximate
Fri 12:53:00 AM 11.4363 -77.7945 143° Southeast  Level FlightAware Approximate
Fri 12:54:00 AM 11.3308 -77.7124 143° Southeast  Level FlightAware Approximate
Fri 12:55:00 AM 11.2253 -77.6304 143° Southeast  Level FlightAware Approximate
Fri 12:56:00 AM 11.1198 -77.5484 143° Southeast  Level FlightAware Approximate
Fri 12:57:00 AM 11.0142 -77.4665 143° Southeast  Level FlightAware Approximate
Fri 12:58:00 AM 10.9119 -77.3808 137° Southeast  Level FlightAware Approximate
Fri 12:59:00 AM 10.8144 -77.2891 137° Southeast  Level FlightAware Approximate
Fri 01:00:00 AM 10.7169 -77.1975 137° Southeast  Level FlightAware Approximate
Fri 01:01:00 AM 10.6194 -77.1060 137° Southeast  Level FlightAware Approximate
Fri 01:02:00 AM 10.5218 -77.0145 137° Southeast  Level FlightAware Approximate
Fri 01:03:00 AM 10.4242 -76.9231 137° Southeast  Level FlightAware Approximate
Fri 01:04:00 AM 10.3266 -76.8317 137° Southeast  Level FlightAware Approximate
Fri 01:05:00 AM 10.2290 -76.7404 137° Southeast  Level FlightAware Approximate
Fri 01:06:00 AM 10.1313 -76.6492 137° Southeast  Level FlightAware Approximate
Fri 01:07:00 AM 10.0336 -76.5580 137° Southeast  Level FlightAware Approximate
Fri 01:08:00 AM 9.9359 -76.4668 137° Southeast  Level FlightAware Approximate
Fri 01:09:00 AM 9.8384 -76.3754 137° Southeast  Level FlightAware Approximate
Fri 01:10:00 AM 9.7411 -76.2840 137° Southeast  Level FlightAware Approximate
Fri 01:11:00 AM 9.6437 -76.1925 137° Southeast  Level FlightAware Approximate
Fri 01:12:00 AM 9.5463 -76.1012 137° Southeast  Level FlightAware Approximate
Fri 01:13:00 AM 9.4489 -76.0098 137° Southeast  Level FlightAware Approximate
Fri 01:14:00 AM 9.3514 -75.9185 137° Southeast  Level FlightAware Approximate
Fri 01:15:00 AM 9.2540 -75.8273 137° Southeast  Level FlightAware Approximate
Fri 01:16:00 AM 9.1565 -75.7362 137° Southeast  Level FlightAware Approximate
Fri 01:17:00 AM 9.0590 -75.6450 137° Southeast  Level FlightAware Approximate
Fri 01:18:00 AM 8.9614 -75.5540 137° Southeast  Level FlightAware Approximate
Fri 01:19:00 AM 8.8639 -75.4629 137° Southeast  Level FlightAware Approximate
Fri 01:20:00 AM 8.7647 -75.3737 139° Southeast  Level FlightAware Approximate
Fri 01:21:00 AM 8.6652 -75.2849 139° Southeast  Level FlightAware Approximate
Fri 01:22:00 AM 8.5657 -75.1961 139° Southeast  Level FlightAware Approximate
Fri 01:23:00 AM 8.4662 -75.1074 139° Southeast  Level FlightAware Approximate
Fri 01:24:00 AM 8.3667 -75.0187 139° Southeast  Level FlightAware Approximate
Fri 01:25:00 AM 8.2671 -74.9300 139° Southeast  Level FlightAware Approximate
Fri 01:26:00 AM 8.1676 -74.8414 139° Southeast  Level FlightAware Approximate
Fri 01:27:00 AM 8.0680 -74.7528 139° Southeast  Level FlightAware Approximate
Fri 01:28:00 AM 7.9684 -74.6643 139° Southeast  Level FlightAware Approximate
Fri 01:29:00 AM 7.8688 -74.5758 139° Southeast  Level FlightAware Approximate
Fri 01:30:00 AM 7.7693 -74.4872 138° Southeast  Level FlightAware Approximate
Fri 01:31:00 AM 7.6710 -74.3972 138° Southeast  Level FlightAware Approximate
Fri 01:32:00 AM 7.5727 -74.3074 138° Southeast  Level FlightAware Approximate
Fri 01:33:00 AM 7.4744 -74.2175 138° Southeast  Level FlightAware Approximate
Fri 01:34:00 AM 7.3760 -74.1277 138° Southeast  Level FlightAware Approximate
Fri 01:35:00 AM 7.2777 -74.0379 138° Southeast  Level FlightAware Approximate
Fri 01:36:00 AM 7.1793 -73.9482 138° Southeast  Level FlightAware Approximate
Fri 01:36:43 AM 7.1670 -73.3930 138° Southeast 484 557 35,000  Level FlightAware ADS-B
Fri 01:37:00 AM 7.0809 -73.8585 138° Southeast  Level FlightAware Approximate
Fri 01:37:30 AM 7.0840 -73.3600 158° South 484 557 35,000  Level FlightAware ADS-B
Fri 01:38:12 AM 6.9790 -73.3200 159° South 487 560 36,000 1,012 Climbing FlightAware ADS-B
Fri 01:38:53 AM 6.8910 -73.2860 159° South 491 565 36,400 706 Climbing FlightAware ADS-B
Fri 01:39:37 AM 6.7990 -73.2500 159° South 488 562 37,000 424 Climbing FlightAware ADS-B
Fri 01:40:18 AM 6.7130 -73.2160 159° South 488 562 37,000  Level FlightAware ADS-B
Fri 01:41:01 AM 6.6200 -73.1800 159° South 488 562 37,000  Level FlightAware ADS-B
Fri 01:41:31 AM 6.5680 -73.1590 158° South 488 562 37,000  Level FlightAware ADS-B
Fri 01:42:19 AM 6.4830 -73.1250 158° South 488 562 37,000  Level FlightAware ADS-B
Fri 01:42:55 AM 6.4190 -73.0980 157° South 488 562 37,000  Level FlightAware ADS-B
Fri 01:43:32 AM 6.3530 -73.0720 159° South 488 562 37,000  Level FlightAware ADS-B
Fri 01:44:33 AM 6.2450 -73.0280 158° South 488 562 37,000  Level FlightAware ADS-B
Fri 01:45:09 AM 6.1800 -73.0020 158° South 488 562 37,000  Level FlightAware ADS-B
Fri 01:45:58 AM 6.0930 -72.9660 158° South 488 562 37,000  Level FlightAware ADS-B
Fri 01:46:34 AM 6.0290 -72.9400 158° South 488 562 37,000  Level FlightAware ADS-B
Fri 01:47:35 AM 5.9210 -72.8960 158° South 488 562 37,000  Level FlightAware ADS-B
Fri 01:48:12 AM 5.8550 -72.8690 158° South 488 562 37,000  Level FlightAware ADS-B
Fri 01:48:49 AM 5.6400 -72.7990 162° South 480 552 37,000  Level FlightAware ADS-B
Fri 01:49:31 AM 5.5530 -72.7660 159° South 481 554 37,000  Level FlightAware ADS-B
Fri 01:50:15 AM 5.4600 -72.7300 159° South 481 554 37,000  Level FlightAware ADS-B
Fri 01:50:51 AM 5.3860 -72.7010 159° South 482 555 37,000  Level FlightAware ADS-B
Fri 01:51:31 AM 5.3010 -72.6680 159° South 482 555 37,000  Level FlightAware ADS-B
Fri 01:52:11 AM 5.2210 -72.6370 159° South 483 556 37,000  Level FlightAware ADS-B
Fri 01:52:48 AM 5.1510 -72.6090 158° South 484 557 37,000  Level FlightAware ADS-B
Fri 01:53:38 AM 5.0630 -72.5740 158° South 484 557 37,000  Level FlightAware ADS-B
Fri 01:54:14 AM 5.0000 -72.5480 158° South 484 557 37,000  Level FlightAware ADS-B
Fri 01:55:00 AM 4.9190 -72.5150 158° South 484 557 37,000  Level FlightAware ADS-B
Fri 01:55:36 AM 4.8550 -72.4890 158° South 484 557 37,000  Level FlightAware ADS-B
Fri 01:56:12 AM 4.7910 -72.4630 158° South 484 557 37,000  Level FlightAware ADS-B
Fri 01:57:00 AM 4.7070 -72.4290 158° South 484 557 37,000  Level FlightAware ADS-B
Fri 01:57:36 AM 4.6430 -72.4030 158° South 484 557 37,000  Level FlightAware ADS-B
Fri 01:58:12 AM 4.5800 -72.3780 158° South 484 557 37,000  Level FlightAware ADS-B
Fri 01:59:01 AM 4.4930 -72.3430 158° South 484 557 37,000  Level FlightAware ADS-B
Fri 01:59:37 AM 4.4300 -72.3170 158° South 484 557 37,000  Level FlightAware ADS-B
Fri 02:00:13 AM 4.3660 -72.2910 158° South 484 557 37,000  Level FlightAware ADS-B
Fri 02:01:15 AM 4.2570 -72.2470 158° South 484 557 37,000  Level FlightAware ADS-B
Fri 02:01:51 AM 4.1930 -72.2210 158° South 484 557 37,000 Level FlightAware ADS-B
Fri 02:04:00 AM 3.9219 -72.1253 145° Southeast  Level FlightAware Approximate
Fri 02:05:00 AM 3.8138 -72.0490 145° Southeast  Level FlightAware Approximate
Fri 02:06:00 AM 3.7055 -71.9726 145° Southeast  Level FlightAware Approximate
Fri 02:07:00 AM 3.5972 -71.8962 145° Southeast  Level FlightAware Approximate
Fri 02:08:00 AM 3.4889 -71.8198 145° Southeast  Level FlightAware Approximate
Fri 02:09:00 AM 3.3806 -71.7435 145° Southeast  Level FlightAware Approximate
Fri 02:10:00 AM 3.2723 -71.6671 145° Southeast  Level FlightAware Approximate
Fri 02:11:00 AM 3.1639 -71.5908 145° Southeast  Level FlightAware Approximate
Fri 02:12:00 AM 3.0556 -71.5145 145° Southeast  Level FlightAware Approximate
Fri 02:13:00 AM 2.9473 -71.4382 145° Southeast  Level FlightAware Approximate
Fri 02:14:00 AM 2.8389 -71.3619 145° Southeast  Level FlightAware Approximate
Fri 02:15:00 AM 2.7306 -71.2857 145° Southeast  Level FlightAware Approximate
Fri 02:16:00 AM 2.6222 -71.2094 145° Southeast  Level FlightAware Approximate
Fri 02:17:00 AM 2.5138 -71.1332 145° Southeast  Level FlightAware Approximate
Fri 02:18:00 AM 2.4055 -71.0570 145° Southeast  Level FlightAware Approximate
Fri 02:19:00 AM 2.2971 -70.9808 145° Southeast  Level FlightAware Approximate
Fri 02:20:00 AM 2.1887 -70.9046 145° Southeast  Level FlightAware Approximate
Fri 02:21:00 AM 2.0803 -70.8284 145° Southeast  Level FlightAware Approximate
Fri 02:22:00 AM 1.9720 -70.7522 145° Southeast  Level FlightAware Approximate
Fri 02:23:00 AM 1.8636 -70.6760 145° Southeast  Level FlightAware Approximate
Fri 02:24:00 AM 1.7552 -70.5999 145° Southeast  Level FlightAware Approximate
Fri 02:25:00 AM 1.6468 -70.5237 145° Southeast  Level FlightAware Approximate
Fri 02:26:00 AM 1.5384 -70.4476 145° Southeast  Level FlightAware Approximate
Fri 02:27:00 AM 1.4300 -70.3714 145° Southeast  Level FlightAware Approximate
Fri 02:28:00 AM 1.3216 -70.2953 145° Southeast  Level FlightAware Approximate
Fri 02:29:00 AM 1.2150 -70.2170 138° Southeast  Level FlightAware Approximate
Fri 02:30:00 AM 1.1160 -70.1289 138° Southeast  Level FlightAware Approximate
Fri 02:31:00 AM 1.0175 -70.0411 138° Southeast  Level FlightAware Approximate
Fri 02:32:00 AM 0.9189 -69.9534 138° Southeast  Level FlightAware Approximate
Fri 02:33:00 AM 0.8203 -69.8656 138° Southeast  Level FlightAware Approximate
Fri 02:34:00 AM 0.7217 -69.7778 138° Southeast  Level FlightAware Approximate
Fri 02:35:00 AM 0.6231 -69.6901 138° Southeast  Level FlightAware Approximate
Fri 02:36:00 AM 0.5245 -69.6023 138° Southeast  Level FlightAware Approximate
Fri 02:37:00 AM 0.4259 -69.5146 138° Southeast  Level FlightAware Approximate
Fri 02:38:00 AM 0.3273 -69.4268 138° Southeast  Level FlightAware Approximate
Fri 02:39:00 AM 0.2288 -69.3391 138° Southeast  Level FlightAware Approximate
Fri 02:40:00 AM 0.1302 -69.2514 138° Southeast  Level FlightAware Approximate
Fri 02:41:00 AM 0.0316 -69.1636 138° Southeast  Level FlightAware Approximate
Fri 02:42:00 AM -0.0670 -69.0759 138° Southeast  Level FlightAware Approximate
Fri 02:43:00 AM -0.1656 -68.9882 138° Southeast  Level FlightAware Approximate
Fri 02:44:00 AM -0.2642 -68.9004 138° Southeast  Level FlightAware Approximate
Fri 02:45:00 AM -0.3628 -68.8127 138° Southeast  Level FlightAware Approximate
Fri 02:46:00 AM -0.4614 -68.7249 138° Southeast  Level FlightAware Approximate
Fri 02:47:00 AM -0.5600 -68.6372 138° Southeast  Level FlightAware Approximate
Fri 02:48:00 AM -0.6586 -68.5494 138° Southeast  Level FlightAware Approximate
Fri 02:49:00 AM -0.7571 -68.4617 138° Southeast  Level FlightAware Approximate
Fri 02:50:00 AM -0.8557 -68.3739 138° Southeast  Level FlightAware Approximate
Fri 02:51:00 AM -0.9543 -68.2862 138° Southeast  Level FlightAware Approximate
Fri 02:52:00 AM -1.0529 -68.1984 138° Southeast  Level FlightAware Approximate
Fri 02:53:00 AM -1.1515 -68.1106 138° Southeast  Level FlightAware Approximate
Fri 02:54:00 AM -1.2500 -68.0228 138° Southeast  Level FlightAware Approximate
Fri 02:55:00 AM -1.3486 -67.9351 138° Southeast  Level FlightAware Approximate
Fri 02:56:00 AM -1.4472 -67.8473 138° Southeast  Level FlightAware Approximate
Fri 02:57:00 AM -1.5458 -67.7595 138° Southeast  Level FlightAware Approximate
Fri 02:58:00 AM -1.6443 -67.6717 138° Southeast  Level FlightAware Approximate
Fri 02:59:00 AM -1.7429 -67.5838 138° Southeast  Level FlightAware Approximate
Fri 03:00:00 AM -1.8414 -67.4960 138° Southeast  Level FlightAware Approximate
Fri 03:01:00 AM -1.9400 -67.4082 138° Southeast  Level FlightAware Approximate
Fri 03:02:00 AM -2.0385 -67.3203 138° Southeast  Level FlightAware Approximate
Fri 03:03:00 AM -2.1371 -67.2325 138° Southeast  Level FlightAware Approximate
Fri 03:04:00 AM -2.2356 -67.1446 138° Southeast  Level FlightAware Approximate
Fri 03:05:00 AM -2.3341 -67.0567 138° Southeast  Level FlightAware Approximate
Fri 03:06:00 AM -2.4327 -66.9688 138° Southeast  Level FlightAware Approximate
Fri 03:07:00 AM -2.5312 -66.8809 138° Southeast  Level FlightAware Approximate
Fri 03:08:00 AM -2.6297 -66.7930 138° Southeast  Level FlightAware Approximate
Fri 03:09:00 AM -2.7282 -66.7051 138° Southeast  Level FlightAware Approximate
Fri 03:10:00 AM -2.8267 -66.6171 138° Southeast  Level FlightAware Approximate
Fri 03:11:00 AM -2.9252 -66.5292 138° Southeast  Level FlightAware Approximate
Fri 03:12:00 AM -3.0237 -66.4412 138° Southeast  Level FlightAware Approximate
Fri 03:13:00 AM -3.1222 -66.3532 138° Southeast  Level FlightAware Approximate
Fri 03:14:00 AM -3.2206 -66.2652 138° Southeast  Level FlightAware Approximate
Fri 03:15:00 AM -3.3191 -66.1771 138° Southeast  Level FlightAware Approximate
Fri 03:16:00 AM -3.4176 -66.0891 138° Southeast  Level FlightAware Approximate
Fri 03:17:00 AM -3.5160 -66.0011 138° Southeast  Level FlightAware Approximate
Fri 03:18:00 AM -3.6145 -65.9130 138° Southeast  Level FlightAware Approximate
Fri 03:19:00 AM -3.7129 -65.8249 138° Southeast  Level FlightAware Approximate
Fri 03:20:00 AM -3.8113 -65.7367 138° Southeast  Level FlightAware Approximate
Fri 03:21:00 AM -3.9097 -65.6486 138° Southeast  Level FlightAware Approximate
Fri 03:22:00 AM -4.0081 -65.5604 138° Southeast  Level FlightAware Approximate
Fri 03:23:00 AM -4.1065 -65.4723 138° Southeast  Level FlightAware Approximate
Fri 03:24:00 AM -4.2049 -65.3841 138° Southeast  Level FlightAware Approximate
Fri 03:25:00 AM -4.3033 -65.2958 138° Southeast  Level FlightAware Approximate
Fri 03:26:00 AM -4.4017 -65.2076 138° Southeast  Level FlightAware Approximate
Fri 03:27:00 AM -4.5000 -65.1193 138° Southeast  Level FlightAware Approximate
Fri 03:28:00 AM -4.5984 -65.0310 138° Southeast  Level FlightAware Approximate
Fri 03:29:00 AM -4.6967 -64.9427 138° Southeast  Level FlightAware Approximate
Fri 03:30:00 AM -4.7950 -64.8544 138° Southeast  Level FlightAware Approximate
Fri 03:31:00 AM -4.8934 -64.7660 138° Southeast  Level FlightAware Approximate
Fri 03:32:00 AM -4.9917 -64.6776 138° Southeast  Level FlightAware Approximate
Fri 03:33:00 AM -5.0899 -64.5892 138° Southeast  Level FlightAware Approximate
Fri 03:34:00 AM -5.1882 -64.5007 138° Southeast  Level FlightAware Approximate
Fri 03:35:00 AM -5.2865 -64.4122 138° Southeast  Level FlightAware Approximate
Fri 03:36:00 AM -5.3847 -64.3238 138° Southeast  Level FlightAware Approximate
Fri 03:37:00 AM -5.4830 -64.2352 138° Southeast  Level FlightAware Approximate
Fri 03:38:00 AM -5.5812 -64.1467 138° Southeast  Level FlightAware Approximate
Fri 03:39:00 AM -5.6794 -64.0581 138° Southeast  Level FlightAware Approximate
Fri 03:40:00 AM -5.7776 -63.9695 138° Southeast  Level FlightAware Approximate
Fri 03:41:00 AM -5.8758 -63.8808 138° Southeast  Level FlightAware Approximate
Fri 03:42:00 AM -5.9740 -63.7921 138° Southeast  Level FlightAware Approximate
Fri 03:43:00 AM -6.0721 -63.7034 138° Southeast  Level FlightAware Approximate
Fri 03:44:00 AM -6.1703 -63.6147 138° Southeast  Level FlightAware Approximate
Fri 03:45:00 AM -6.2684 -63.5259 138° Southeast  Level FlightAware Approximate
Fri 03:46:00 AM -6.3665 -63.4371 138° Southeast  Level FlightAware Approximate
Fri 03:47:00 AM -6.4646 -63.3482 138° Southeast  Level FlightAware Approximate
Fri 03:48:00 AM -6.5627 -63.2593 138° Southeast  Level FlightAware Approximate
Fri 03:49:00 AM -6.6608 -63.1704 138° Southeast  Level FlightAware Approximate
Fri 03:50:00 AM -6.7588 -63.0815 138° Southeast  Level FlightAware Approximate
Fri 03:51:00 AM -6.8569 -62.9925 138° Southeast  Level FlightAware Approximate
Fri 03:52:00 AM -6.9549 -62.9034 138° Southeast  Level FlightAware Approximate
Fri 03:53:00 AM -7.0529 -62.8144 138° Southeast  Level FlightAware Approximate
Fri 03:54:00 AM -7.1509 -62.7253 138° Southeast  Level FlightAware Approximate
Fri 03:55:00 AM -7.2488 -62.6361 138° Southeast  Level FlightAware Approximate
Fri 03:56:00 AM -7.3468 -62.5470 138° Southeast  Level FlightAware Approximate
Fri 03:57:00 AM -7.4447 -62.4577 138° Southeast  Level FlightAware Approximate
Fri 03:58:00 AM -7.5426 -62.3685 138° Southeast  Level FlightAware Approximate
Fri 03:59:00 AM -7.6405 -62.2792 138° Southeast  Level FlightAware Approximate
Fri 04:00:00 AM -7.7384 -62.1898 138° Southeast  Level FlightAware Approximate
Fri 04:01:00 AM -7.8363 -62.1005 138° Southeast  Level FlightAware Approximate
Fri 04:02:00 AM -7.9341 -62.0110 138° Southeast  Level FlightAware Approximate
Fri 04:03:00 AM -8.0319 -61.9216 138° Southeast  Level FlightAware Approximate
Fri 04:04:00 AM -8.1297 -61.8321 138° Southeast  Level FlightAware Approximate
Fri 04:05:00 AM -8.2275 -61.7425 138° Southeast  Level FlightAware Approximate
Fri 04:06:00 AM -8.3253 -61.6529 138° Southeast  Level FlightAware Approximate
Fri 04:07:00 AM -8.4230 -61.5633 138° Southeast  Level FlightAware Approximate
Fri 04:08:00 AM -8.5207 -61.4736 138° Southeast  Level FlightAware Approximate
Fri 04:09:00 AM -8.6184 -61.3839 138° Southeast  Level FlightAware Approximate
Fri 04:10:00 AM -8.7161 -61.2941 138° Southeast  Level FlightAware Approximate
Fri 04:11:00 AM -8.8138 -61.2042 138° Southeast  Level FlightAware Approximate
Fri 04:12:00 AM -8.9114 -61.1144 138° Southeast  Level FlightAware Approximate
Fri 04:13:00 AM -9.0090 -61.0244 138° Southeast  Level FlightAware Approximate
Fri 04:14:00 AM -9.1066 -60.9345 138° Southeast  Level FlightAware Approximate
Fri 04:15:00 AM -9.2042 -60.8445 138° Southeast  Level FlightAware Approximate
Fri 04:16:00 AM -9.3018 -60.7544 138° Southeast  Level FlightAware Approximate
Fri 04:17:00 AM -9.3993 -60.6643 138° Southeast  Level FlightAware Approximate
Fri 04:18:00 AM -9.4968 -60.5741 138° Southeast  Level FlightAware Approximate
Fri 04:19:00 AM -9.5943 -60.4839 138° Southeast  Level FlightAware Approximate
Fri 04:20:00 AM -9.6917 -60.3936 138° Southeast  Level FlightAware Approximate
Fri 04:21:00 AM -9.7892 -60.3033 138° Southeast  Level FlightAware Approximate
Fri 04:22:00 AM -9.8866 -60.2129 138° Southeast  Level FlightAware Approximate
Fri 04:23:00 AM -9.9840 -60.1225 138° Southeast  Level FlightAware Approximate
Fri 04:24:00 AM -10.0813 -60.0320 138° Southeast  Level FlightAware Approximate
Fri 04:25:00 AM -10.1787 -59.9414 138° Southeast  Level FlightAware Approximate
Fri 04:26:00 AM -10.2760 -59.8508 138° Southeast  Level FlightAware Approximate
Fri 04:27:00 AM -10.3731 -59.7604 137° Southeast  Level FlightAware Approximate
Fri 04:28:00 AM -10.4702 -59.6698 137° Southeast  Level FlightAware Approximate
Fri 04:29:00 AM -10.5673 -59.5792 137° Southeast  Level FlightAware Approximate
Fri 04:30:00 AM -10.6643 -59.4885 137° Southeast  Level FlightAware Approximate
Fri 04:31:00 AM -10.7613 -59.3978 137° Southeast  Level FlightAware Approximate
Fri 04:32:00 AM -10.8583 -59.3070 137° Southeast  Level FlightAware Approximate
Fri 04:33:00 AM -10.9553 -59.2162 137° Southeast  Level FlightAware Approximate
Fri 04:34:00 AM -11.0522 -59.1253 137° Southeast  Level FlightAware Approximate
Fri 04:35:00 AM -11.1491 -59.0344 137° Southeast  Level FlightAware Approximate
Fri 04:36:00 AM -11.2460 -58.9433 137° Southeast  Level FlightAware Approximate
Fri 04:37:00 AM -11.3428 -58.8522 137° Southeast  Level FlightAware Approximate
Fri 04:38:00 AM -11.4396 -58.7611 137° Southeast  Level FlightAware Approximate
Fri 04:39:00 AM -11.5365 -58.6699 137° Southeast  Level FlightAware Approximate
Fri 04:40:00 AM -11.6332 -58.5786 137° Southeast  Level FlightAware Approximate
Fri 04:41:00 AM -11.7300 -58.4873 137° Southeast  Level FlightAware Approximate
Fri 04:42:00 AM -11.8267 -58.3959 137° Southeast  Level FlightAware Approximate
Fri 04:43:00 AM -11.9234 -58.3045 137° Southeast  Level FlightAware Approximate
Fri 04:44:00 AM -12.0200 -58.2129 137° Southeast  Level FlightAware Approximate
Fri 04:45:00 AM -12.1166 -58.1213 137° Southeast  Level FlightAware Approximate
Fri 04:46:00 AM -12.2132 -58.0297 137° Southeast  Level FlightAware Approximate
Fri 04:47:00 AM -12.3098 -57.9380 137° Southeast  Level FlightAware Approximate
Fri 04:48:00 AM -12.4063 -57.8462 137° Southeast  Level FlightAware Approximate
Fri 04:49:00 AM -12.5028 -57.7543 137° Southeast  Level FlightAware Approximate
Fri 04:50:00 AM -12.5993 -57.6624 137° Southeast  Level FlightAware Approximate
Fri 04:51:00 AM -12.6957 -57.5704 137° Southeast  Level FlightAware Approximate
Fri 04:52:00 AM -12.7921 -57.4783 137° Southeast  Level FlightAware Approximate
Fri 04:53:00 AM -12.8885 -57.3862 137° Southeast  Level FlightAware Approximate
Fri 04:54:00 AM -12.9848 -57.2940 137° Southeast  Level FlightAware Approximate
Fri 04:55:00 AM -13.0811 -57.2017 137° Southeast  Level FlightAware Approximate
Fri 04:56:00 AM -13.1774 -57.1094 137° Southeast  Level FlightAware Approximate
Fri 04:57:00 AM -13.2737 -57.0169 137° Southeast  Level FlightAware Approximate
Fri 04:58:00 AM -13.3699 -56.9244 137° Southeast  Level FlightAware Approximate
Fri 04:59:00 AM -13.4661 -56.8319 137° Southeast  Level FlightAware Approximate
Fri 05:00:00 AM -13.5622 -56.7392 137° Southeast  Level FlightAware Approximate
Fri 05:01:00 AM -13.6583 -56.6465 137° Southeast  Level FlightAware Approximate
Fri 05:02:00 AM -13.7544 -56.5537 137° Southeast  Level FlightAware Approximate
Fri 05:03:00 AM -13.8504 -56.4608 137° Southeast  Level FlightAware Approximate
Fri 05:04:00 AM -13.9464 -56.3679 137° Southeast  Level FlightAware Approximate
Fri 05:05:00 AM -14.0424 -56.2749 137° Southeast  Level FlightAware Approximate
Fri 05:06:00 AM -14.1383 -56.1818 137° Southeast  Level FlightAware Approximate
Fri 05:07:00 AM -14.2342 -56.0886 137° Southeast  Level FlightAware Approximate
Fri 05:08:00 AM -14.3301 -55.9953 137° Southeast  Level FlightAware Approximate
Fri 05:09:00 AM -14.4259 -55.9020 137° Southeast  Level FlightAware Approximate
Fri 05:10:00 AM -14.5217 -55.8086 137° Southeast  Level FlightAware Approximate
Fri 05:11:00 AM -14.6174 -55.7151 137° Southeast  Level FlightAware Approximate
Fri 05:12:00 AM -14.7131 -55.6215 137° Southeast  Level FlightAware Approximate
Fri 05:13:00 AM -14.8088 -55.5278 137° Southeast  Level FlightAware Approximate
Fri 05:14:00 AM -14.9045 -55.4341 137° Southeast  Level FlightAware Approximate
Fri 05:15:00 AM -15.0001 -55.3402 137° Southeast  Level FlightAware Approximate
Fri 05:16:00 AM -15.0956 -55.2463 137° Southeast  Level FlightAware Approximate
Fri 05:17:00 AM -15.1911 -55.1523 136° Southeast  Level FlightAware Approximate
Fri 05:18:00 AM -15.2866 -55.0582 136° Southeast  Level FlightAware Approximate
Fri 05:19:00 AM -15.3821 -54.9641 136° Southeast  Level FlightAware Approximate
Fri 05:20:00 AM -15.4775 -54.8698 136° Southeast  Level FlightAware Approximate
Fri 05:21:00 AM -15.5728 -54.7755 136° Southeast  Level FlightAware Approximate
Fri 05:22:00 AM -15.6681 -54.6810 136° Southeast  Level FlightAware Approximate
Fri 05:23:00 AM -15.7634 -54.5865 136° Southeast  Level FlightAware Approximate
Fri 05:24:00 AM -15.8587 -54.4919 136° Southeast  Level FlightAware Approximate
Fri 05:25:00 AM -15.9539 -54.3972 136° Southeast  Level FlightAware Approximate
Fri 05:26:00 AM -16.0490 -54.3024 136° Southeast  Level FlightAware Approximate
Fri 05:27:00 AM -16.1441 -54.2075 136° Southeast  Level FlightAware Approximate
Fri 05:28:00 AM -16.2392 -54.1126 136° Southeast  Level FlightAware Approximate
Fri 05:29:00 AM -16.3343 -54.0175 136° Southeast  Level FlightAware Approximate
Fri 05:30:00 AM -16.4293 -53.9224 136° Southeast  Level FlightAware Approximate
Fri 05:31:00 AM -16.5242 -53.8271 136° Southeast  Level FlightAware Approximate
Fri 05:32:00 AM -16.6191 -53.7318 136° Southeast  Level FlightAware Approximate
Fri 05:33:00 AM -16.7140 -53.6363 136° Southeast  Level FlightAware Approximate
Fri 05:34:00 AM -16.8088 -53.5408 136° Southeast  Level FlightAware Approximate
Fri 05:35:00 AM -16.9036 -53.4452 136° Southeast  Level FlightAware Approximate
Fri 05:36:00 AM -16.9983 -53.3495 136° Southeast  Level FlightAware Approximate
Fri 05:37:00 AM -17.0930 -53.2536 136° Southeast  Level FlightAware Approximate
Fri 05:38:00 AM -17.1876 -53.1577 136° Southeast  Level FlightAware Approximate
Fri 05:39:00 AM -17.2822 -53.0617 136° Southeast  Level FlightAware Approximate
Fri 05:40:00 AM -17.3768 -52.9656 136° Southeast  Level FlightAware Approximate
Fri 05:41:00 AM -17.4713 -52.8694 136° Southeast  Level FlightAware Approximate
Fri 05:42:00 AM -17.5657 -52.7731 136° Southeast  Level FlightAware Approximate
Fri 05:43:00 AM -17.6602 -52.6767 136° Southeast  Level FlightAware Approximate
Fri 05:44:00 AM -17.7545 -52.5802 136° Southeast  Level FlightAware Approximate
Fri 05:45:00 AM -17.8488 -52.4835 136° Southeast  Level FlightAware Approximate
Fri 05:46:00 AM -17.9431 -52.3868 136° Southeast  Level FlightAware Approximate
Fri 05:47:00 AM -18.0373 -52.2900 136° Southeast  Level FlightAware Approximate
Fri 05:48:00 AM -18.1315 -52.1931 136° Southeast  Level FlightAware Approximate
Fri 05:49:00 AM -18.2256 -52.0961 136° Southeast  Level FlightAware Approximate
Fri 05:50:00 AM -18.3197 -51.9989 136° Southeast  Level FlightAware Approximate
Fri 05:51:00 AM -18.4137 -51.9017 136° Southeast  Level FlightAware Approximate
Fri 05:51:30 AM -19.0630 -50.6020 136° Southeast 534 615 39,000  Level FlightAware ADS-B
Fri 05:52:00 AM -18.5077 -51.8043 136° Southeast  Level FlightAware Approximate
Fri 05:52:08 AM -19.1300 -50.5290 134° Southeast 535 616 39,000  Level FlightAware ADS-B
Fri 05:52:46 AM -19.1960 -50.4560 134° Southeast 535 616 39,000  Level FlightAware ADS-B
Fri 05:53:21 AM -19.2550 -50.3920 134° Southeast 536 617 39,000  Level FlightAware ADS-B
Fri 05:54:02 AM -19.3260 -50.3140 134° Southeast 536 617 39,000  Level FlightAware ADS-B
Fri 05:54:42 AM -19.3930 -50.2400 134° Southeast 537 618 39,000  Level FlightAware ADS-B
Fri 05:55:27 AM -19.4730 -50.1530 134° Southeast 538 619 39,000  Level FlightAware ADS-B
Fri 05:56:06 AM -19.5400 -50.0780 133° Southeast 539 620 39,000  Level FlightAware ADS-B
Fri 05:56:50 AM -19.6170 -49.9940 134° Southeast 541 623 39,000  Level FlightAware ADS-B
Fri 05:57:30 AM -19.6860 -49.9180 134° Southeast 542 624 39,000  Level FlightAware ADS-B
Fri 05:58:16 AM -19.7680 -49.8290 134° Southeast 543 625 39,000  Level FlightAware ADS-B
Fri 05:58:56 AM -19.8380 -49.7530 134° Southeast 544 626 39,000  Level FlightAware ADS-B
Fri 05:59:40 AM -19.9150 -49.6690 134° Southeast 545 627 39,000  Level FlightAware ADS-B
Fri 06:00:18 AM -19.9820 -49.5950 134° Southeast 545 627 39,000  Level FlightAware ADS-B
Fri 06:01:04 AM -20.0620 -49.5070 134° Southeast 545 627 39,000  Level FlightAware ADS-B
Fri 06:01:43 AM -20.1310 -49.4310 134° Southeast 546 628 39,000  Level FlightAware ADS-B
Fri 06:02:20 AM -20.1960 -49.3590 134° Southeast 546 628 39,000  Level FlightAware ADS-B
Fri 06:03:01 AM -20.2670 -49.2810 134° Southeast 546 628 39,000  Level FlightAware ADS-B
Fri 06:03:40 AM -20.3350 -49.2050 134° Southeast 546 628 39,000  Level FlightAware ADS-B
Fri 06:04:20 AM -20.4060 -49.1270 134° Southeast 545 627 39,000  Level FlightAware ADS-B
Fri 06:05:01 AM -20.4770 -49.0480 134° Southeast 545 627 39,000  Level FlightAware ADS-B
Fri 06:05:40 AM -20.5470 -48.9710 134° Southeast 545 627 39,000  Level FlightAware ADS-B
Fri 06:06:22 AM -20.6200 -48.8900 134° Southeast 546 628 39,000  Level FlightAware ADS-B
Fri 06:07:06 AM -20.6960 -48.8050 134° Southeast 545 627 39,000  Level FlightAware ADS-B
Fri 06:07:50 AM -20.7690 -48.7240 134° Southeast 543 625 39,000  Level FlightAware ADS-B
Fri 06:08:30 AM -20.8430 -48.6400 133° Southeast 543 625 39,000  Level FlightAware ADS-B
Fri 06:09:10 AM -20.9120 -48.5630 134° Southeast 543 625 39,000  Level FlightAware ADS-B
Fri 06:09:46 AM -20.9740 -48.4930 133° Southeast 542 624 39,000  Level FlightAware ADS-B
Fri 06:10:27 AM -21.0490 -48.4220 139° Southeast 532 612 39,000  Level FlightAware ADS-B
Fri 06:11:11 AM -21.1330 -48.3480 141° Southeast 532 612 39,000  Level FlightAware ADS-B
Fri 06:11:45 AM -21.1990 -48.2930 142° Southeast 530 610 39,000  Level FlightAware ADS-B
Fri 06:12:29 AM -21.2850 -48.2210 142° Southeast 530 610 39,000  Level FlightAware ADS-B
Fri 06:13:10 AM -21.3620 -48.1550 141° Southeast 529 609 39,000 -73 Level FlightAware ADS-B
Fri 06:13:51 AM -21.4410 -48.0860 141° Southeast 524 603 38,900 -635 Descending FlightAware ADS-B
Fri 06:14:35 AM -21.5240 -48.0150 141° Southeast 523 602 38,100 -1,143 Descending FlightAware ADS-B
Fri 06:15:15 AM -21.6000 -47.9490 141° Southeast 527 606 37,300 -929 Descending FlightAware ADS-B
Fri 06:15:59 AM -21.6830 -47.8770 141° Southeast 517 595 36,800 -1,518 Descending FlightAware ADS-B
Fri 06:16:38 AM -21.7550 -47.8150 141° Southeast 517 595 35,200 -2,241 Descending FlightAware ADS-B
Fri 06:17:22 AM -21.8370 -47.7440 141° Southeast 504 580 33,700 -2,286 Descending FlightAware ADS-B
Fri 06:18:02 AM -21.9090 -47.6810 141° Southeast 499 574 32,000 -1,976 Descending FlightAware ADS-B
Fri 06:18:44 AM -21.9820 -47.6180 141° Southeast 477 549 31,000 -1,814 Descending FlightAware ADS-B
Fri 06:19:28 AM -22.0570 -47.5520 141° Southeast 468 539 29,400 -2,069 Descending FlightAware ADS-B
Fri 06:20:11 AM -22.1280 -47.4900 141° Southeast 459 528 28,000 -1,857 Descending FlightAware ADS-B
Fri 06:20:52 AM -22.1960 -47.4310 141° Southeast 452 520 26,800 -1,704 Descending FlightAware ADS-B
Fri 06:21:32 AM -22.2610 -47.3740 141° Southeast 444 511 25,700 -1,595 Descending FlightAware ADS-B
Fri 06:22:11 AM -22.3220 -47.3210 141° Southeast 437 503 24,700 -1,500 Descending FlightAware ADS-B
Fri 06:22:52 AM -22.3870 -47.2650 141° Southeast 427 491 23,700 -1,553 Descending FlightAware ADS-B
Fri 06:23:36 AM -22.4530 -47.2060 140° Southeast 416 479 22,500 -1,643 Descending FlightAware ADS-B
Fri 06:24:16 AM -22.5120 -47.1550 141° Southeast 408 470 21,400 -1,704 Descending FlightAware ADS-B
Fri 06:24:57 AM -22.5690 -47.1070 142° Southeast 395 455 20,200 -1,744 Descending FlightAware ADS-B
Fri 06:25:42 AM -22.6460 -47.0680 155° Southeast 378 435 18,900 -1,390 Descending FlightAware ADS-B
Fri 06:26:19 AM -22.7040 -47.0440 159° South 357 411 18,300 -1,098 Descending FlightAware ADS-B
Fri 06:27:04 AM -22.7720 -47.0160 159° South 330 380 17,400 -1,483 Descending FlightAware ADS-B
Fri 06:27:48 AM -22.8340 -46.9900 159° South 321 369 16,100 -1,714 Descending FlightAware ADS-B
Fri 06:28:28 AM -22.8880 -46.9670 159° South 307 353 15,000 -1,786 Descending FlightAware ADS-B
Fri 06:29:12 AM -22.9460 -46.9430 159° South 297 342 13,600 -1,857 Descending FlightAware ADS-B
Fri 06:29:52 AM -22.9960 -46.9220 159° South 282 325 12,400 -1,425 Descending FlightAware ADS-B
Fri 06:30:32 AM -23.0430 -46.9020 159° South 269 310 11,700 -1,129 Descending FlightAware ADS-B
Fri 06:31:17 AM -23.0940 -46.8800 158° South 265 305 10,800 -1,143 Descending FlightAware ADS-B
Fri 06:31:56 AM -23.1390 -46.8610 159° South 255 293 10,100 -1,053 Descending FlightAware ADS-B
Fri 06:32:14 AM -23.1580 -46.8530 159° South 237 273 9,800 -857 Descending FlightAware ADS-B
Fri 06:32:38 AM -23.1830 -46.8430 160° South 237 273 9,500 -792 Descending FlightAware ADS-B
Fri 06:33:07 AM -23.2120 -46.8300 158° South 236 272 9,100 -800 Descending FlightAware ADS-B
Fri 06:33:38 AM -23.2440 -46.8170 160° South 229 264 8,700 -800 Descending FlightAware ADS-B
Fri 06:34:07 AM -23.2710 -46.8050 158° South 220 253 8,300 -808 Descending FlightAware ADS-B
Fri 06:34:30 AM -23.2940 -46.7960 160° South 208 239 8,000 -679 Descending FlightAware ADS-B
Fri 06:35:00 AM -23.3190 -46.7850 158° South 196 226 7,700 -621 Descending FlightAware ADS-B
Fri 06:35:28 AM -23.3430 -46.7750 159° South 192 221 7,400 -643 Descending FlightAware ADS-B
Fri 06:35:56 AM -23.3660 -46.7650 158° South 186 214 7,100 -682 Descending FlightAware ADS-B
Fri 06:36:12 AM -23.3770 -46.7580 150° Southeast 182 209 6,900 -750 Descending FlightAware ADS-B
Fri 06:36:28 AM -23.3880 -46.7480 140° Southeast 184 212 6,700 -563 Descending FlightAware ADS-B
Fri 06:36:44 AM -23.3990 -46.7380 140° Southeast 187 215 6,600 -652 Descending FlightAware ADS-B
Fri 06:37:14 AM -23.4180 -46.7200 139° Southeast 180 207 6,200 -632 Descending FlightAware ADS-B
Fri 06:37:41 AM -23.4340 -46.7050 139° Southeast 173 199 6,000 -545 Descending FlightAware ADS-B
Fri 06:38:09 AM -23.4500 -46.6870 134° Southeast 177 204 5,700 -600 Descending FlightAware ADS-B
Fri 06:38:21 AM -23.4540 -46.6770 114° Southeast 177 204 5,600 -750 Descending FlightAware ADS-B
Fri 06:38:33 AM -23.4590 -46.6670 119° Southeast 179 206 5,400 -1,000 Descending FlightAware ADS-B
Fri 06:39:03 AM -23.4690 -46.6430 114° Southeast 181 208 4,900 -917 Descending FlightAware ADS-B
Fri 06:39:45 AM -23.4710 -46.6050 93° East 194 223 4,300 -1,000 Descending FlightAware ADS-B
Fri 06:40:15 AM -23.4630 -46.5780 72° East 186 214 3,700 -1,091 Descending FlightAware ADS-B
Fri 06:40:40 AM -23.4570 -46.5560 73° East 178 205 3,300 -873 Descending FlightAware ADS-B
Fri 06:41:10 AM -23.4510 -46.5310 75° East 150 173 2,900 -857 Descending FlightAware ADS-B
Fri 06:41:29 AM -23.4470 -46.5160 74° East 149 171 2,600 -800 Descending FlightAware ADS-B
Fri 06:41:55 AM -23.4420 -46.4990 72° East 147 169 2,300 -692 Descending FlightAware ADS-B
Fri 06:42:30 AM -23.4360 -46.4750 75° East 120 138 -3,943 Descending FlightAware ADS-B
Fri 06:43:12 AM -23.4320 -46.4610 73° East 72 83  Level FlightAware ADS-B

Login

Don't have an account? Register now (free) for customized features, flight alerts, and more!